createdAt,value
2022-09-07T00:00:36.423Z,67.46
2022-09-07T00:01:34.243Z,67.46
2022-09-07T00:02:34.533Z,67.32
2022-09-07T00:03:34.242Z,67.46
2022-09-07T00:04:34.230Z,67.46
2022-09-07T00:05:34.179Z,67.66
2022-09-07T00:06:34.161Z,67.76
2022-09-07T00:07:34.198Z,67.76
2022-09-07T00:08:34.172Z,68.05
2022-09-07T00:09:34.441Z,68.26
2022-09-07T00:10:34.144Z,68.55
2022-09-07T00:11:34.099Z,68.66
2022-09-07T00:12:34.124Z,68.76
2022-09-07T00:13:34.133Z,68.76
2022-09-07T00:14:34.109Z,69.09
2022-09-07T00:15:34.059Z,69.19
2022-09-07T00:16:34.425Z,69.19
2022-09-07T00:17:34.038Z,69.19
2022-09-07T00:18:34.039Z,68.99
2022-09-07T00:19:34.047Z,69.29
2022-09-07T00:20:34.054Z,69.29
2022-09-07T00:21:34.005Z,69.19
2022-09-07T00:22:33.983Z,69.19
2022-09-07T00:23:34.303Z,69.29
2022-09-07T00:24:33.971Z,69.59
2022-09-07T00:25:33.981Z,69.59
2022-09-07T00:26:33.961Z,69.79
2022-09-07T00:27:33.938Z,69.49
2022-09-07T00:28:33.922Z,69.49
2022-09-07T00:29:33.908Z,69.59
2022-09-07T00:30:34.191Z,69.69
2022-09-07T00:31:33.969Z,69.99
2022-09-07T00:32:33.895Z,70.29
2022-09-07T00:33:33.865Z,69.99
2022-09-07T00:34:33.909Z,69.89
2022-09-07T00:35:33.839Z,70.19
2022-09-07T00:36:33.836Z,70.50
2022-09-07T00:37:34.149Z,70.79
2022-09-07T00:38:33.863Z,70.79
2022-09-07T00:39:33.835Z,67.29
2022-09-07T00:40:33.794Z,65.86
2022-09-07T00:41:33.789Z,63.82
2022-09-07T00:42:33.773Z,64.19
2022-09-07T00:43:33.812Z,63.76
2022-09-07T00:44:34.044Z,64.56
2022-09-07T00:45:33.766Z,66.49
2022-09-07T00:46:33.778Z,67.13
2022-09-07T00:47:33.734Z,68.96
2022-09-07T00:48:33.723Z,70.19
2022-09-07T00:49:33.783Z,70.59
2022-09-07T00:50:33.684Z,74.03
2022-09-07T00:51:33.949Z,75.07
2022-09-07T00:52:33.675Z,76.21
2022-09-07T00:53:33.644Z,76.75
2022-09-07T00:54:33.666Z,76.95
2022-09-07T00:55:33.677Z,77.99
2022-09-07T00:56:33.618Z,78.89
2022-09-07T00:57:33.622Z,78.69
2022-09-07T00:58:33.883Z,78.39
2022-09-07T00:59:33.596Z,78.99
2022-09-07T01:00:33.587Z,78.99
2022-09-07T01:01:33.773Z,79.09
2022-09-07T01:02:33.697Z,79.23
2022-09-07T01:03:33.549Z,79.33
2022-09-07T01:04:33.533Z,79.23
2022-09-07T01:05:33.839Z,80.24
2022-09-07T01:06:33.526Z,79.63
2022-09-07T01:07:33.547Z,79.93
2022-09-07T01:08:33.528Z,80.63
2022-09-07T01:09:33.487Z,80.74
2022-09-07T01:10:33.559Z,81.14
2022-09-07T01:11:33.458Z,81.44
2022-09-07T01:12:33.769Z,82.08
2022-09-07T01:13:33.478Z,81.98
2022-09-07T01:14:33.490Z,82.38
2022-09-07T01:15:33.457Z,81.88
2022-09-07T01:16:33.408Z,82.38
2022-09-07T01:17:33.388Z,82.78
2022-09-07T01:18:33.391Z,82.68
2022-09-07T01:19:33.742Z,82.38
2022-09-07T01:20:33.383Z,82.68
2022-09-07T01:21:33.349Z,81.48
2022-09-07T01:22:33.344Z,81.98
2022-09-07T01:23:33.347Z,81.88
2022-09-07T01:24:33.328Z,81.98
2022-09-07T01:25:33.335Z,81.98
2022-09-07T01:26:33.571Z,81.68
2022-09-07T01:27:33.288Z,82.28
2022-09-07T01:28:33.279Z,82.58
2022-09-07T01:29:33.258Z,82.08
2022-09-07T01:30:33.259Z,82.98
2022-09-07T01:31:33.406Z,82.58
2022-09-07T01:32:33.257Z,82.89
2022-09-07T01:33:33.498Z,82.98
2022-09-07T01:34:33.219Z,83.49
2022-09-07T01:35:33.204Z,84.13
2022-09-07T01:36:33.191Z,83.43
2022-09-07T01:37:33.212Z,84.03
2022-09-07T01:38:33.175Z,84.53
2022-09-07T01:39:33.209Z,84.13
2022-09-07T01:40:33.423Z,84.83
2022-09-07T01:41:33.127Z,85.14
2022-09-07T01:42:33.137Z,84.97
2022-09-07T01:43:33.150Z,85.88
2022-09-07T01:44:33.100Z,85.58
2022-09-07T01:45:33.100Z,85.98
2022-09-07T01:46:33.173Z,86.28
2022-09-07T01:47:33.371Z,86.79
2022-09-07T01:48:33.064Z,86.79
2022-09-07T01:49:33.092Z,86.88
2022-09-07T01:50:33.049Z,86.79
2022-09-07T01:51:33.022Z,87.29
2022-09-07T01:52:33.019Z,86.58
2022-09-07T01:53:33.047Z,86.83
2022-09-07T01:54:33.287Z,87.08
2022-09-07T01:55:33.022Z,87.13
2022-09-07T01:56:32.987Z,87.63
2022-09-07T01:57:32.982Z,87.13
2022-09-07T01:58:32.959Z,88.03
2022-09-07T01:59:32.953Z,87.73
2022-09-07T02:00:32.946Z,88.03
2022-09-07T02:01:33.362Z,88.13
2022-09-07T02:02:32.940Z,88.13
2022-09-07T02:03:32.923Z,88.74
2022-09-07T02:04:32.880Z,88.74
2022-09-07T02:05:32.880Z,88.84
2022-09-07T02:06:32.889Z,88.84
2022-09-07T02:07:32.898Z,88.84
2022-09-07T02:08:33.121Z,88.74
2022-09-07T02:09:32.835Z,88.84
2022-09-07T02:10:32.833Z,88.98
2022-09-07T02:11:32.827Z,89.39
2022-09-07T02:12:32.814Z,89.69
2022-09-07T02:13:32.834Z,90.29
2022-09-07T02:14:32.787Z,90.79
2022-09-07T02:15:33.089Z,91.19
2022-09-07T02:16:32.762Z,90.89
2022-09-07T02:17:32.739Z,91.60
2022-09-07T02:18:32.739Z,91.39
2022-09-07T02:19:32.777Z,92.20
2022-09-07T02:20:32.741Z,93.55
2022-09-07T02:21:32.709Z,94.36
2022-09-07T02:22:33.002Z,94.96
2022-09-07T02:23:32.684Z,95.47
2022-09-07T02:24:32.671Z,95.67
2022-09-07T02:25:32.692Z,94.96
2022-09-07T02:26:32.649Z,94.06
2022-09-07T02:27:32.633Z,94.46
2022-09-07T02:28:32.877Z,95.81
2022-09-07T02:29:32.903Z,96.22
2022-09-07T02:30:32.608Z,96.22
2022-09-07T02:31:32.667Z,96.32
2022-09-07T02:32:32.602Z,95.92
2022-09-07T02:33:32.581Z,95.92
2022-09-07T02:34:32.572Z,94.91
2022-09-07T02:35:32.552Z,95.92
2022-09-07T02:36:32.822Z,96.42
2022-09-07T02:37:32.556Z,96.92
2022-09-07T02:38:32.542Z,97.73
2022-09-07T02:39:32.551Z,98.24
2022-09-07T02:40:32.498Z,98.84
2022-09-07T02:41:32.496Z,98.44
2022-09-07T02:42:32.485Z,98.13
2022-09-07T02:43:32.905Z,98.84
2022-09-07T02:44:32.460Z,98.24
2022-09-07T02:45:32.457Z,98.84
2022-09-07T02:46:32.492Z,99.44
2022-09-07T02:47:32.422Z,99.99
2022-09-07T02:48:32.408Z,99.85
2022-09-07T02:49:32.422Z,99.54
2022-09-07T02:50:32.685Z,99.04
2022-09-07T02:51:32.377Z,98.03
2022-09-07T02:52:32.396Z,95.11
2022-09-07T02:53:32.347Z,96.32
2022-09-07T02:54:32.349Z,97.43
2022-09-07T02:55:32.898Z,98.24
2022-09-07T02:57:47.628Z,96.92
2022-09-07T02:58:48.649Z,96.12
2022-09-07T02:59:48.597Z,96.12
2022-09-07T03:00:48.619Z,96.72
2022-09-07T03:01:48.651Z,97.53
2022-09-07T03:02:48.627Z,97.83
2022-09-07T03:03:48.832Z,98.24
2022-09-07T03:04:48.543Z,98.33
2022-09-07T03:05:48.544Z,98.64
2022-09-07T03:06:48.571Z,99.04
2022-09-07T03:07:48.511Z,99.74
2022-09-07T03:08:48.498Z,99.99
2022-09-07T03:09:48.492Z,99.99
2022-09-07T03:10:48.759Z,99.99
2022-09-07T03:11:48.470Z,99.99
2022-09-07T03:12:48.491Z,99.39
2022-09-07T03:13:48.454Z,99.19
2022-09-07T03:14:48.434Z,99.69
2022-09-07T03:15:51.387Z,99.79
2022-09-07T03:16:48.434Z,99.89
2022-09-07T03:17:48.691Z,99.99
2022-09-07T03:18:48.456Z,99.99
2022-09-07T03:19:48.397Z,99.99
2022-09-07T03:20:48.361Z,99.99
2022-09-07T03:21:48.362Z,99.99
2022-09-07T03:22:48.346Z,99.99
2022-09-07T03:23:51.752Z,99.89
2022-09-07T03:24:48.627Z,99.99
2022-09-07T03:25:48.316Z,99.99
2022-09-07T03:26:48.299Z,99.99
2022-09-07T03:27:48.296Z,99.99
2022-09-07T03:28:48.298Z,99.99
2022-09-07T03:29:48.288Z,99.99
2022-09-07T03:30:48.301Z,99.99
2022-09-07T03:31:48.543Z,99.99
2022-09-07T03:32:48.264Z,99.99
2022-09-07T03:33:48.253Z,99.99
2022-09-07T03:34:48.213Z,99.99
2022-09-07T03:35:48.205Z,99.99
2022-09-07T03:36:48.227Z,99.99
2022-09-07T03:37:48.191Z,99.99
2022-09-07T03:38:48.471Z,99.99
2022-09-07T03:39:48.247Z,99.99
2022-09-07T03:40:48.150Z,99.99
2022-09-07T03:41:48.137Z,99.99
2022-09-07T03:42:48.169Z,99.99
2022-09-07T03:43:48.119Z,99.99
2022-09-07T03:44:48.105Z,99.99
2022-09-07T03:45:48.416Z,99.99
2022-09-07T03:46:48.081Z,99.99
2022-09-07T03:47:48.076Z,99.99
2022-09-07T03:48:48.095Z,99.99
2022-09-07T03:49:48.053Z,99.99
2022-09-07T03:50:48.041Z,99.99
2022-09-07T03:51:48.035Z,99.99
2022-09-07T03:52:48.296Z,99.99
2022-09-07T03:53:48.019Z,99.99
2022-09-07T03:54:48.035Z,99.99
2022-09-07T03:55:48.005Z,99.99
2022-09-07T03:56:47.973Z,99.99
2022-09-07T03:57:47.974Z,99.99
2022-09-07T03:58:47.948Z,99.99
2022-09-07T03:59:48.219Z,99.99
2022-09-07T04:00:48.864Z,99.99
2022-09-07T04:01:47.944Z,99.99
2022-09-07T04:02:48.004Z,99.99
2022-09-07T04:03:47.903Z,99.99
2022-09-07T04:04:47.878Z,99.99
2022-09-07T04:05:47.909Z,99.99
2022-09-07T04:06:48.172Z,99.99
2022-09-07T04:07:47.860Z,99.99
2022-09-07T04:08:47.870Z,99.99
2022-09-07T04:09:47.852Z,99.99
2022-09-07T04:10:47.833Z,99.99
2022-09-07T04:11:47.813Z,99.99
2022-09-07T04:12:47.833Z,99.99
2022-09-07T04:13:48.111Z,99.99
2022-09-07T04:14:47.772Z,99.99
2022-09-07T04:15:50.982Z,99.99
2022-09-07T04:16:47.853Z,99.99
2022-09-07T04:17:47.756Z,99.99
2022-09-07T04:18:47.807Z,99.99
2022-09-07T04:19:47.732Z,99.99
2022-09-07T04:20:47.985Z,99.99
2022-09-07T04:21:47.711Z,99.99
2022-09-07T04:22:50.425Z,99.99
2022-09-07T04:23:47.687Z,99.99
2022-09-07T04:24:47.701Z,99.99
2022-09-07T04:25:47.662Z,99.99
2022-09-07T04:26:47.648Z,99.99
2022-09-07T04:27:47.914Z,99.99
2022-09-07T04:28:47.617Z,99.99
2022-09-07T04:29:47.637Z,99.99
2022-09-07T04:30:47.702Z,99.99
2022-09-07T04:31:47.611Z,99.99
2022-09-07T04:32:47.579Z,99.99
2022-09-07T04:33:47.567Z,99.99
2022-09-07T04:34:47.826Z,99.99
2022-09-07T04:35:47.559Z,99.99
2022-09-07T04:36:47.563Z,99.99
2022-09-07T04:37:47.530Z,99.99
2022-09-07T04:38:47.523Z,99.99
2022-09-07T04:39:47.538Z,99.99
2022-09-07T04:40:47.488Z,99.99
2022-09-07T04:41:47.753Z,99.99
2022-09-07T04:42:47.507Z,99.99
2022-09-07T04:43:47.469Z,99.99
2022-09-07T04:44:47.447Z,99.99
2022-09-07T04:45:47.496Z,99.99
2022-09-07T04:46:47.424Z,99.99
2022-09-07T04:47:47.436Z,99.99
2022-09-07T04:48:47.728Z,99.99
2022-09-07T04:49:47.389Z,99.99
2022-09-07T04:50:47.374Z,99.99
2022-09-07T04:51:47.375Z,99.99
2022-09-07T04:52:47.358Z,99.99
2022-09-07T04:53:47.346Z,99.99
2022-09-07T04:54:47.387Z,99.99
2022-09-07T04:55:47.615Z,99.99
2022-09-07T04:56:47.307Z,99.99
2022-09-07T04:57:47.341Z,99.99
2022-09-07T04:58:47.349Z,99.99
2022-09-07T04:59:47.279Z,99.99
2022-09-07T05:00:47.372Z,99.99
2022-09-07T05:01:47.342Z,99.99
2022-09-07T05:02:47.660Z,99.99
2022-09-07T05:03:47.252Z,99.99
2022-09-07T05:04:47.228Z,99.99
2022-09-07T05:05:47.227Z,99.99
2022-09-07T05:06:47.523Z,99.99
2022-09-07T05:07:47.207Z,99.99
2022-09-07T05:08:47.193Z,99.99
2022-09-07T05:09:47.450Z,99.99
2022-09-07T05:10:47.157Z,99.99
2022-09-07T05:11:47.159Z,99.99
2022-09-07T05:12:47.161Z,99.99
2022-09-07T05:13:47.126Z,99.99
2022-09-07T05:14:47.107Z,99.99
2022-09-07T05:15:47.103Z,99.99
2022-09-07T05:16:47.421Z,99.99
2022-09-07T05:17:47.120Z,99.99
2022-09-07T05:18:47.118Z,99.99
2022-09-07T05:19:47.062Z,99.99
2022-09-07T05:20:47.076Z,99.99
2022-09-07T05:21:47.036Z,99.99
2022-09-07T05:22:47.065Z,99.99
2022-09-07T05:23:47.314Z,99.99
2022-09-07T05:24:47.035Z,99.99
2022-09-07T05:25:47.021Z,99.99
2022-09-07T05:26:46.996Z,99.99
2022-09-07T05:27:46.981Z,99.99
2022-09-07T05:28:46.957Z,99.99
2022-09-07T05:30:03.696Z,99.99
2022-09-07T05:31:46.936Z,99.99
2022-09-07T05:32:46.916Z,99.99
2022-09-07T05:34:49.651Z,99.99
2022-09-07T05:35:46.899Z,99.99
2022-09-07T05:36:47.186Z,99.99
2022-09-07T05:37:46.870Z,99.99
2022-09-07T05:38:46.854Z,99.99
2022-09-07T05:39:46.921Z,99.99
2022-09-07T05:40:46.853Z,99.99
2022-09-07T05:41:46.818Z,99.99
2022-09-07T05:42:46.858Z,99.99
2022-09-07T05:44:46.789Z,99.99
2022-09-07T05:45:46.807Z,99.99
2022-09-07T05:46:46.763Z,99.99
2022-09-07T05:47:46.755Z,99.99
2022-09-07T05:48:46.767Z,99.99
2022-09-07T05:49:46.740Z,99.99
2022-09-07T05:50:46.991Z,99.99
2022-09-07T05:51:46.785Z,99.99
2022-09-07T05:52:46.701Z,99.99
2022-09-07T05:53:46.702Z,99.99
2022-09-07T05:54:46.694Z,99.99
2022-09-07T05:55:46.669Z,99.99
2022-09-07T05:56:46.659Z,99.99
2022-09-07T05:57:46.921Z,99.99
2022-09-07T05:58:46.632Z,99.99
2022-09-07T05:59:46.627Z,99.74
2022-09-07T06:00:46.645Z,99.84
2022-09-07T06:01:46.653Z,99.99
2022-09-07T06:02:46.722Z,99.99
2022-09-07T06:03:46.582Z,99.99
2022-09-07T06:04:46.873Z,99.99
2022-09-07T06:05:46.562Z,99.89
2022-09-07T06:07:04.569Z,99.59
2022-09-07T06:07:46.549Z,99.79
2022-09-07T06:08:46.519Z,99.79
2022-09-07T06:10:46.497Z,99.24
2022-09-07T06:11:46.786Z,98.84
2022-09-07T06:12:49.056Z,98.94
2022-09-07T06:13:46.471Z,98.54
2022-09-07T06:14:46.464Z,98.59
2022-09-07T06:15:46.441Z,98.90
2022-09-07T06:16:46.495Z,98.19
2022-09-07T06:17:46.425Z,97.38
2022-09-07T06:18:46.731Z,96.53
2022-09-07T06:19:46.415Z,96.33
2022-09-07T06:20:46.390Z,96.23
2022-09-07T06:21:46.380Z,96.03
2022-09-07T06:22:46.377Z,95.73
2022-09-07T06:23:46.362Z,95.83
2022-09-07T06:24:46.380Z,95.83
2022-09-07T06:25:46.639Z,95.83
2022-09-07T06:26:46.340Z,95.73
2022-09-07T06:27:46.311Z,95.22
2022-09-07T06:28:49.119Z,95.53
2022-09-07T06:29:46.299Z,95.02
2022-09-07T06:30:46.325Z,95.18
2022-09-07T06:32:46.371Z,94.67
2022-09-07T06:33:46.273Z,94.57
2022-09-07T06:34:46.246Z,93.97
2022-09-07T06:35:46.233Z,93.87
2022-09-07T06:36:46.267Z,93.46
2022-09-07T06:37:46.207Z,94.17
2022-09-07T06:38:46.492Z,94.07
2022-09-07T06:39:46.233Z,93.57
2022-09-07T06:40:46.198Z,93.77
2022-09-07T06:42:01.632Z,94.57
2022-09-07T06:42:46.219Z,94.17
2022-09-07T06:43:46.238Z,94.02
2022-09-07T06:44:46.131Z,93.52
2022-09-07T06:45:46.315Z,93.12
2022-09-07T06:47:46.129Z,91.87
2022-09-07T06:48:46.125Z,91.97
2022-09-07T06:49:46.075Z,91.27
2022-09-07T06:50:46.380Z,90.56
2022-09-07T06:51:46.062Z,91.17
2022-09-07T06:53:46.152Z,90.56
2022-09-07T06:55:01.668Z,90.46
2022-09-07T06:55:46.018Z,90.36
2022-09-07T06:56:46.011Z,90.77
2022-09-07T06:57:46.280Z,91.06
2022-09-07T06:58:45.982Z,90.92
2022-09-07T06:59:46.007Z,88.75
2022-09-07T07:00:46.011Z,89.82
2022-09-07T07:01:45.958Z,89.82
2022-09-07T07:02:45.944Z,89.42
2022-09-07T07:03:46.033Z,89.82
2022-09-07T07:04:46.203Z,89.92
2022-09-07T07:05:45.933Z,89.11
2022-09-07T07:06:45.970Z,89.47
2022-09-07T07:07:45.883Z,89.27
2022-09-07T07:08:45.887Z,88.87
2022-09-07T07:09:45.876Z,88.47
2022-09-07T07:10:45.872Z,88.27
2022-09-07T07:11:46.121Z,88.17
2022-09-07T07:13:48.323Z,88.53
2022-09-07T07:14:49.278Z,87.93
2022-09-07T07:15:49.276Z,87.32
2022-09-07T07:16:49.310Z,87.42
2022-09-07T07:17:58.057Z,87.02
2022-09-07T07:18:49.267Z,86.22
2022-09-07T07:19:49.525Z,87.12
2022-09-07T07:20:49.229Z,86.72
2022-09-07T07:22:10.801Z,86.82
2022-09-07T07:22:49.208Z,86.72
2022-09-07T07:23:49.218Z,86.88
2022-09-07T07:24:49.178Z,85.58
2022-09-07T07:25:49.170Z,85.58
2022-09-07T07:26:49.489Z,85.68
2022-09-07T07:27:49.190Z,85.97
2022-09-07T07:29:04.557Z,86.08
2022-09-07T07:29:49.164Z,85.68
2022-09-07T07:30:49.125Z,85.38
2022-09-07T07:31:49.154Z,84.67
2022-09-07T07:32:49.099Z,85.17
2022-09-07T07:33:49.426Z,84.91
2022-09-07T07:34:49.100Z,85.41
2022-09-07T07:35:49.116Z,85.82
2022-09-07T07:36:49.052Z,86.22
2022-09-07T07:37:49.164Z,86.42
2022-09-07T07:41:57.423Z,87.57
2022-09-07T07:42:49.009Z,87.16
2022-09-07T07:43:48.985Z,87.16
2022-09-07T07:44:49.066Z,87.16
2022-09-07T07:45:56.227Z,86.52
2022-09-07T07:46:49.178Z,86.22
2022-09-07T07:47:48.968Z,85.08
2022-09-07T07:48:48.944Z,83.97
2022-09-07T07:49:49.463Z,84.53
2022-09-07T07:50:48.905Z,83.19
2022-09-07T07:52:50.526Z,82.35
2022-09-07T07:53:48.925Z,81.95
2022-09-07T07:54:48.880Z,82.05
2022-09-07T07:55:48.876Z,81.65
2022-09-07T07:56:48.851Z,81.45
2022-09-07T07:57:48.848Z,82.49
2022-09-07T07:58:49.109Z,83.09
2022-09-07T07:59:48.857Z,82.99
2022-09-07T08:00:56.638Z,83.19
2022-09-07T08:01:48.954Z,82.99
2022-09-07T08:02:48.847Z,82.93
2022-09-07T08:03:48.796Z,83.43
2022-09-07T08:04:48.773Z,83.83
2022-09-07T08:05:48.797Z,83.93
2022-09-07T08:06:48.745Z,84.67
2022-09-07T08:07:48.758Z,85.08
2022-09-07T08:08:48.743Z,85.27
2022-09-07T08:09:48.734Z,85.68
2022-09-07T08:10:48.993Z,85.68
2022-09-07T08:11:48.737Z,85.13
2022-09-07T08:12:48.681Z,84.83
2022-09-07T08:13:48.692Z,84.67
2022-09-07T08:14:48.679Z,85.27
2022-09-07T08:15:48.934Z,85.61
2022-09-07T08:16:48.645Z,86.02
2022-09-07T08:17:48.981Z,86.48
2022-09-07T08:18:48.630Z,85.92
2022-09-07T08:19:48.613Z,85.82
2022-09-07T08:20:48.610Z,86.02
2022-09-07T08:21:48.603Z,86.12
2022-09-07T08:22:48.588Z,86.32
2022-09-07T08:23:48.617Z,86.42
2022-09-07T08:24:48.855Z,86.72
2022-09-07T08:25:48.564Z,86.52
2022-09-07T08:26:48.591Z,86.42
2022-09-07T08:27:48.556Z,86.52
2022-09-07T08:28:48.521Z,86.38
2022-09-07T08:29:48.564Z,85.61
2022-09-07T08:30:48.520Z,85.92
2022-09-07T08:31:48.813Z,86.02
2022-09-07T08:32:48.482Z,86.02
2022-09-07T08:33:48.484Z,86.42
2022-09-07T08:34:48.494Z,86.62
2022-09-07T08:35:48.505Z,86.28
2022-09-07T08:36:48.470Z,85.47
2022-09-07T08:37:48.449Z,85.58
2022-09-07T08:38:48.697Z,85.47
2022-09-07T08:39:48.471Z,85.58
2022-09-07T08:40:48.450Z,85.68
2022-09-07T08:41:48.421Z,85.88
2022-09-07T08:42:48.375Z,85.22
2022-09-07T08:43:49.281Z,85.88
2022-09-07T08:44:48.363Z,85.58
2022-09-07T08:45:48.662Z,84.97
2022-09-07T08:46:48.416Z,84.53
2022-09-07T08:47:48.377Z,85.13
2022-09-07T08:48:48.332Z,84.63
2022-09-07T08:49:48.317Z,84.53
2022-09-07T08:50:48.306Z,84.23
2022-09-07T08:51:48.283Z,83.83
2022-09-07T08:52:48.541Z,83.83
2022-09-07T08:53:48.306Z,84.57
2022-09-07T08:54:48.250Z,85.08
2022-09-07T08:55:48.240Z,85.47
2022-09-07T08:57:48.243Z,83.93
2022-09-07T08:58:49.818Z,83.73
2022-09-07T08:59:48.516Z,84.03
2022-09-07T09:00:48.300Z,84.03
2022-09-07T09:02:26.936Z,83.89
2022-09-07T09:03:28.715Z,83.69
2022-09-07T09:05:48.585Z,82.09
2022-09-07T09:06:48.294Z,82.29
2022-09-07T09:07:48.122Z,82.29
2022-09-07T09:08:48.103Z,82.45
2022-09-07T09:09:48.101Z,81.85
2022-09-07T09:10:48.110Z,82.15
2022-09-07T09:11:48.101Z,82.35
2022-09-07T09:12:48.351Z,82.35
2022-09-07T09:13:48.085Z,82.35
2022-09-07T09:14:48.059Z,81.41
2022-09-07T09:15:48.105Z,81.71
2022-09-07T09:16:48.015Z,81.30
2022-09-07T09:17:48.044Z,81.30
2022-09-07T09:18:48.017Z,79.41
2022-09-07T09:19:48.280Z,79.50
2022-09-07T09:20:47.999Z,79.80
2022-09-07T09:21:47.976Z,79.71
2022-09-07T09:22:47.949Z,79.47
2022-09-07T09:23:48.014Z,79.60
2022-09-07T09:24:47.952Z,79.06
2022-09-07T09:25:47.945Z,78.83
2022-09-07T09:26:48.181Z,78.93
2022-09-07T09:27:47.923Z,78.39
2022-09-07T09:28:47.886Z,76.79
2022-09-07T09:29:47.938Z,77.39
2022-09-07T09:30:47.962Z,78.23
2022-09-07T09:31:47.874Z,78.67
2022-09-07T09:32:47.851Z,79.60
2022-09-07T09:33:47.868Z,80.21
2022-09-07T09:34:47.828Z,80.61
2022-09-07T09:35:47.864Z,81.04
2022-09-07T09:36:47.868Z,80.85
2022-09-07T09:37:47.875Z,80.94
2022-09-07T09:38:47.831Z,81.65
2022-09-07T09:39:51.002Z,81.85
2022-09-07T09:40:47.788Z,81.95
2022-09-07T09:41:47.797Z,81.95
2022-09-07T09:42:47.758Z,80.61
2022-09-07T09:43:47.768Z,80.24
2022-09-07T09:44:47.739Z,79.71
2022-09-07T09:46:47.944Z,79.30
2022-09-07T09:47:47.757Z,79.30
2022-09-07T09:48:47.690Z,79.10
2022-09-07T09:49:47.676Z,79.50
2022-09-07T09:52:51.670Z,79.41
2022-09-07T09:53:47.694Z,79.30
2022-09-07T09:54:47.626Z,79.27
2022-09-07T09:55:47.642Z,78.97
2022-09-07T09:56:47.636Z,78.27
2022-09-07T09:59:04.852Z,78.56
2022-09-07T10:00:08.512Z,78.13
2022-09-07T10:04:47.563Z,76.69
2022-09-07T10:05:47.505Z,76.89
2022-09-07T10:06:47.506Z,77.13
2022-09-07T10:07:47.498Z,77.19
2022-09-07T10:08:47.518Z,77.43
2022-09-07T10:09:47.477Z,78.03
2022-09-07T10:10:47.773Z,78.23
2022-09-07T10:12:47.467Z,77.93
2022-09-07T10:13:47.439Z,78.73
2022-09-07T10:14:47.422Z,79.33
2022-09-07T10:15:47.448Z,78.83
2022-09-07T10:16:47.457Z,79.63
2022-09-07T10:17:47.672Z,79.23
2022-09-07T10:18:47.382Z,78.99
2022-09-07T10:19:47.376Z,80.09
2022-09-07T10:20:47.373Z,80.59
2022-09-07T10:21:47.339Z,82.99
2022-09-07T10:22:51.301Z,81.43
2022-09-07T10:23:47.322Z,80.73
2022-09-07T10:24:47.614Z,81.53
2022-09-07T10:25:47.304Z,80.53
2022-09-07T10:26:47.323Z,82.03
2022-09-07T10:27:47.277Z,81.73
2022-09-07T10:29:47.293Z,81.87
2022-09-07T10:30:47.304Z,80.77
2022-09-07T10:31:47.518Z,81.77
2022-09-07T10:32:47.242Z,81.57
2022-09-07T10:34:25.738Z,81.37
2022-09-07T10:34:47.267Z,81.17
2022-09-07T10:35:47.780Z,81.17
2022-09-07T10:36:47.202Z,81.23
2022-09-07T10:37:47.179Z,81.13
2022-09-07T10:38:47.442Z,80.33
2022-09-07T10:39:47.269Z,80.73
2022-09-07T10:40:47.205Z,80.27
2022-09-07T10:41:47.217Z,79.77
2022-09-07T10:43:47.273Z,81.17
2022-09-07T10:44:47.156Z,80.47
2022-09-07T10:45:48.522Z,80.77
2022-09-07T10:47:02.691Z,80.87
2022-09-07T10:47:47.075Z,80.93
2022-09-07T10:48:47.232Z,80.53
2022-09-07T10:50:47.054Z,80.47
2022-09-07T10:51:47.032Z,80.07
2022-09-07T10:52:47.098Z,79.57
2022-09-07T10:53:47.241Z,80.30
2022-09-07T10:54:47.000Z,80.71
2022-09-07T10:55:47.007Z,81.41
2022-09-07T10:56:46.982Z,80.21
2022-09-07T10:57:49.271Z,80.71
2022-09-07T10:59:03.512Z,81.51
2022-09-07T11:00:46.954Z,82.01
2022-09-07T11:01:47.054Z,81.51
2022-09-07T11:03:24.808Z,81.45
2022-09-07T11:03:46.971Z,82.24
2022-09-07T11:04:46.958Z,82.45
2022-09-07T11:05:47.269Z,82.95
2022-09-07T11:06:46.884Z,82.05
2022-09-07T11:07:46.877Z,81.85
2022-09-07T11:09:46.878Z,81.74
2022-09-07T11:10:46.884Z,81.55
2022-09-07T11:12:03.377Z,81.85
2022-09-07T11:12:46.874Z,81.51
2022-09-07T11:14:09.296Z,81.01
2022-09-07T11:14:46.813Z,81.11
2022-09-07T11:15:46.828Z,80.67
2022-09-07T11:16:50.716Z,80.87
2022-09-07T11:17:52.070Z,81.07
2022-09-07T11:18:46.772Z,80.77
2022-09-07T11:19:46.744Z,80.97
2022-09-07T11:20:46.792Z,80.36
2022-09-07T11:22:02.067Z,79.86
2022-09-07T11:22:46.798Z,80.67
2022-09-07T11:23:46.698Z,80.57
2022-09-07T11:24:47.411Z,81.47
2022-09-07T11:25:46.882Z,82.87
2022-09-07T11:26:46.679Z,82.77
2022-09-07T11:27:46.667Z,83.77
2022-09-07T11:28:47.157Z,83.57
2022-09-07T11:29:46.654Z,83.01
2022-09-07T11:30:46.717Z,83.11
2022-09-07T11:31:46.699Z,84.81
2022-09-07T11:32:46.670Z,84.61
2022-09-07T11:34:23.825Z,83.51
2022-09-07T11:34:46.670Z,84.65
2022-09-07T11:35:46.579Z,85.25
2022-09-07T11:36:46.859Z,85.55
2022-09-07T11:37:46.592Z,85.75
2022-09-07T11:38:46.582Z,86.55
2022-09-07T11:39:46.598Z,87.26
2022-09-07T11:40:46.562Z,86.25
2022-09-07T11:41:46.549Z,85.61
2022-09-07T11:42:46.530Z,85.51
2022-09-07T11:43:46.513Z,85.47
2022-09-07T11:44:46.519Z,84.87
2022-09-07T11:45:46.469Z,84.77
2022-09-07T11:46:46.644Z,84.67
2022-09-07T11:47:46.462Z,83.97
2022-09-07T11:48:46.772Z,84.17
2022-09-07T11:49:51.514Z,82.33
2022-09-07T11:50:46.439Z,80.17
2022-09-07T11:51:46.466Z,81.17
2022-09-07T11:52:46.446Z,81.57
2022-09-07T11:53:46.388Z,82.07
2022-09-07T11:54:46.398Z,81.87
2022-09-07T11:55:46.701Z,81.51
2022-09-07T11:56:46.390Z,80.80
2022-09-07T11:57:46.371Z,81.30
2022-09-07T11:58:46.363Z,82.11
2022-09-07T11:59:46.316Z,81.41
2022-09-07T12:00:46.337Z,81.47
2022-09-07T12:01:46.322Z,80.23
2022-09-07T12:02:59.520Z,78.39
2022-09-07T12:03:46.406Z,76.65
2022-09-07T12:04:46.416Z,75.15
2022-09-07T12:05:46.277Z,75.55
2022-09-07T12:06:46.267Z,75.35
2022-09-07T12:07:46.240Z,74.77
2022-09-07T12:08:46.238Z,73.01
2022-09-07T12:09:47.666Z,71.62
2022-09-07T12:10:46.261Z,71.62
2022-09-07T12:11:46.215Z,71.32
2022-09-07T12:12:46.204Z,70.79
2022-09-07T12:13:46.177Z,69.56
2022-09-07T12:14:46.190Z,69.13
2022-09-07T12:15:46.238Z,68.76
2022-09-07T12:16:46.486Z,69.29
2022-09-07T12:17:46.149Z,69.26
2022-09-07T12:18:46.179Z,68.73
2022-09-07T12:19:46.122Z,68.43
2022-09-07T12:20:46.128Z,67.11
2022-09-07T12:21:46.106Z,65.88
2022-09-07T12:22:46.203Z,65.16
2022-09-07T12:23:46.371Z,64.95
2022-09-07T12:24:46.086Z,65.06
2022-09-07T12:25:46.103Z,65.06
2022-09-07T12:26:46.080Z,66.02
2022-09-07T12:27:46.070Z,65.39
2022-09-07T12:28:46.064Z,63.87
2022-09-07T12:29:46.017Z,63.80
2022-09-07T12:30:46.370Z,63.80
2022-09-07T12:31:57.589Z,64.33
2022-09-07T12:32:54.512Z,65.78
2022-09-07T12:33:45.985Z,67.40
2022-09-07T12:34:46.033Z,68.13
2022-09-07T12:35:45.970Z,68.04
2022-09-07T12:36:45.953Z,67.47
2022-09-07T12:37:46.257Z,68.37
2022-09-07T12:38:46.043Z,67.83
2022-09-07T12:39:46.011Z,67.07
2022-09-07T12:40:45.988Z,67.04
2022-09-07T12:41:47.306Z,65.82
2022-09-07T12:42:45.896Z,65.82
2022-09-07T12:43:45.878Z,65.65
2022-09-07T12:44:46.181Z,66.67
2022-09-07T12:45:45.860Z,65.85
2022-09-07T12:46:46.726Z,66.25
2022-09-07T12:47:45.833Z,65.25
2022-09-07T12:48:45.858Z,65.98
2022-09-07T12:49:45.820Z,66.35
2022-09-07T12:50:45.811Z,66.44
2022-09-07T12:52:09.122Z,66.48
2022-09-07T12:52:45.838Z,67.00
2022-09-07T12:53:45.766Z,68.04
2022-09-07T12:54:45.775Z,67.70
2022-09-07T12:56:46.382Z,64.43
2022-09-07T12:57:45.793Z,65.35
2022-09-07T12:58:46.074Z,64.43
2022-09-07T12:59:45.744Z,63.93
2022-09-07T13:00:45.700Z,63.73
2022-09-07T13:01:45.832Z,63.43
2022-09-07T13:02:45.733Z,63.10
2022-09-07T13:03:52.784Z,62.91
2022-09-07T13:04:45.700Z,62.48
2022-09-07T13:05:46.425Z,62.18
2022-09-07T13:07:45.635Z,62.05
2022-09-07T13:08:45.652Z,60.94
2022-09-07T13:09:45.611Z,60.08
2022-09-07T13:10:45.635Z,59.27
2022-09-07T13:11:45.773Z,58.87
2022-09-07T13:12:53.688Z,59.06
2022-09-07T13:14:02.963Z,59.17
2022-09-07T13:14:45.561Z,59.27
2022-09-07T13:15:45.612Z,58.28
2022-09-07T13:17:45.543Z,59.09
2022-09-07T13:18:45.520Z,59.69
2022-09-07T13:19:45.505Z,59.12
2022-09-07T13:20:45.510Z,60.02
2022-09-07T13:21:45.496Z,60.02
2022-09-07T13:22:45.639Z,60.02
2022-09-07T13:23:45.736Z,59.72
2022-09-07T13:24:46.942Z,60.83
2022-09-07T13:25:45.468Z,62.21